Saddlebrooke, Arizona
Current Conditions -  °F | °C
As of 6:58 AM on Friday 24 Oct 2014 (Local Time) from KDMA Reporting Station
Clear Clear  
Wind Chill: 61°   Ceiling: Unl
Heat Index: 61°   Visibility: 10mi
Dew Point: 46°   Wind: 12mph
Humidity: 57%   Direction: 150°SSE
Pressure: 30.11"   Gusts: NA
Location:  32.4847°N, 110.899°W
Report Text: KDMA 241358Z AUTO 15010KT 10SM CLR 16/08 A3011 RMK AO2 SLP164 T01600076 $
Loading
Personal Weather Stations






























Interactive Weather Map
Tropical Storm Tracking
New forecast layout! Learn more

10-Day Weather Forecast

Advertisements
Track Severe Weather on mobile